sensor_id;sensor_type;location;lat;lon;timestamp;temperature;humidity
4727;DHT22;2377;51.734;8.950;2022-11-21T00:01:00;1.10;99.90
4727;DHT22;2377;51.734;8.950;2022-11-21T00:03:37;1.00;99.90
4727;DHT22;2377;51.734;8.950;2022-11-21T00:06:04;1.00;99.90
4727;DHT22;2377;51.734;8.950;2022-11-21T00:08:32;0.90;99.90
4727;DHT22;2377;51.734;8.950;2022-11-21T00:10:59;0.90;99.90
4727;DHT22;2377;51.734;8.950;2022-11-21T00:13:26;0.80;99.90
4727;DHT22;2377;51.734;8.950;2022-11-21T00:15:53;0.80;99.90
4727;DHT22;2377;51.734;8.950;2022-11-21T00:18:22;0.80;99.90
4727;DHT22;2377;51.734;8.950;2022-11-21T00:20:49;0.80;99.90
4727;DHT22;2377;51.734;8.950;2022-11-21T00:23:16;0.80;99.90
4727;DHT22;2377;51.734;8.950;2022-11-21T00:25:43;0.80;99.90
4727;DHT22;2377;51.734;8.950;2022-11-21T00:28:10;0.80;99.90
4727;DHT22;2377;51.734;8.950;2022-11-21T00:30:37;0.70;99.90
4727;DHT22;2377;51.734;8.950;2022-11-21T00:33:04;0.70;99.90
4727;DHT22;2377;51.734;8.950;2022-11-21T00:35:32;0.80;99.90
4727;DHT22;2377;51.734;8.950;2022-11-21T00:37:59;0.70;99.90
4727;DHT22;2377;51.734;8.950;2022-11-21T00:40:26;0.80;99.90
4727;DHT22;2377;51.734;8.950;2022-11-21T00:42:53;0.80;99.90
4727;DHT22;2377;51.734;8.950;2022-11-21T00:45:21;0.80;99.90
4727;DHT22;2377;51.734;8.950;2022-11-21T00:47:48;0.80;99.90
4727;DHT22;2377;51.734;8.950;2022-11-21T00:50:15;0.80;99.90
4727;DHT22;2377;51.734;8.950;2022-11-21T00:52:43;0.80;99.90
4727;DHT22;2377;51.734;8.950;2022-11-21T00:55:10;0.70;99.90
4727;DHT22;2377;51.734;8.950;2022-11-21T00:57:37;0.70;99.90
4727;DHT22;2377;51.734;8.950;2022-11-21T01:00:06;0.70;99.90
4727;DHT22;2377;51.734;8.950;2022-11-21T01:02:33;0.80;99.90
4727;DHT22;2377;51.734;8.950;2022-11-21T01:05:01;0.70;99.90
4727;DHT22;2377;51.734;8.950;2022-11-21T01:07:28;0.70;99.90
4727;DHT22;2377;51.734;8.950;2022-11-21T01:09:56;0.80;99.90
4727;DHT22;2377;51.734;8.950;2022-11-21T01:12:23;0.70;99.90
4727;DHT22;2377;51.734;8.950;2022-11-21T01:14:51;0.70;99.90
4727;DHT22;2377;51.734;8.950;2022-11-21T01:17:19;0.70;99.90
4727;DHT22;2377;51.734;8.950;2022-11-21T01:19:46;0.70;99.90
4727;DHT22;2377;51.734;8.950;2022-11-21T01:22:13;0.70;99.90
4727;DHT22;2377;51.734;8.950;2022-11-21T01:24:40;0.70;99.90
4727;DHT22;2377;51.734;8.950;2022-11-21T01:27:08;0.70;99.90
4727;DHT22;2377;51.734;8.950;2022-11-21T01:29:35;0.70;99.90
4727;DHT22;2377;51.734;8.950;2022-11-21T01:32:02;0.60;99.90
4727;DHT22;2377;51.734;8.950;2022-11-21T01:34:30;0.60;99.90
4727;DHT22;2377;51.734;8.950;2022-11-21T01:36:57;0.60;99.90
4727;DHT22;2377;51.734;8.950;2022-11-21T01:39:25;0.60;99.90
4727;DHT22;2377;51.734;8.950;2022-11-21T01:41:52;0.70;99.90
4727;DHT22;2377;51.734;8.950;2022-11-21T01:44:22;0.70;99.90
4727;DHT22;2377;51.734;8.950;2022-11-21T01:46:51;0.60;99.90
4727;DHT22;2377;51.734;8.950;2022-11-21T01:49:20;0.70;99.90
4727;DHT22;2377;51.734;8.950;2022-11-21T01:51:54;0.70;99.90
4727;DHT22;2377;51.734;8.950;2022-11-21T01:54:30;0.70;99.90
4727;DHT22;2377;51.734;8.950;2022-11-21T01:57:05;0.80;99.90
4727;DHT22;2377;51.734;8.950;2022-11-21T01:59:40;0.80;99.90
4727;DHT22;2377;51.734;8.950;2022-11-21T02:02:13;0.80;99.90
4727;DHT22;2377;51.734;8.950;2022-11-21T02:04:43;0.80;99.90
4727;DHT22;2377;51.734;8.950;2022-11-21T02:07:12;0.80;99.90
4727;DHT22;2377;51.734;8.950;2022-11-21T02:09:44;0.70;99.90
4727;DHT22;2377;51.734;8.950;2022-11-21T02:12:21;0.70;99.90
4727;DHT22;2377;51.734;8.950;2022-11-21T02:14:53;0.70;99.90
4727;DHT22;2377;51.734;8.950;2022-11-21T02:17:22;0.70;99.90
4727;DHT22;2377;51.734;8.950;2022-11-21T02:19:52;0.60;99.90
4727;DHT22;2377;51.734;8.950;2022-11-21T02:22:31;0.60;99.90
4727;DHT22;2377;51.734;8.950;2022-11-21T02:25:09;0.70;99.90
4727;DHT22;2377;51.734;8.950;2022-11-21T02:27:40;0.70;99.90
4727;DHT22;2377;51.734;8.950;2022-11-21T02:30:09;0.80;99.90
4727;DHT22;2377;51.734;8.950;2022-11-21T02:32:39;0.80;99.90
4727;DHT22;2377;51.734;8.950;2022-11-21T02:35:11;0.80;99.90
4727;DHT22;2377;51.734;8.950;2022-11-21T02:37:40;0.80;99.90
4727;DHT22;2377;51.734;8.950;2022-11-21T02:40:14;0.80;99.90
4727;DHT22;2377;51.734;8.950;2022-11-21T02:42:51;0.90;99.90
4727;DHT22;2377;51.734;8.950;2022-11-21T02:45:27;0.90;99.90
4727;DHT22;2377;51.734;8.950;2022-11-21T02:47:58;0.80;99.90
4727;DHT22;2377;51.734;8.950;2022-11-21T02:50:27;0.90;99.90
4727;DHT22;2377;51.734;8.950;2022-11-21T02:52:56;0.90;99.90
4727;DHT22;2377;51.734;8.950;2022-11-21T02:55:25;0.90;99.90
4727;DHT22;2377;51.734;8.950;2022-11-21T02:57:52;0.90;99.90
4727;DHT22;2377;51.734;8.950;2022-11-21T03:00:20;0.90;99.90
4727;DHT22;2377;51.734;8.950;2022-11-21T03:02:48;0.80;99.90
4727;DHT22;2377;51.734;8.950;2022-11-21T03:05:16;0.80;99.90
4727;DHT22;2377;51.734;8.950;2022-11-21T03:07:45;0.80;99.90
4727;DHT22;2377;51.734;8.950;2022-11-21T03:10:13;0.60;99.90
4727;DHT22;2377;51.734;8.950;2022-11-21T03:12:42;0.60;99.90
4727;DHT22;2377;51.734;8.950;2022-11-21T03:15:11;0.50;99.90
4727;DHT22;2377;51.734;8.950;2022-11-21T03:17:41;0.50;99.90
4727;DHT22;2377;51.734;8.950;2022-11-21T03:20:09;0.50;99.90
4727;DHT22;2377;51.734;8.950;2022-11-21T03:22:37;0.50;99.90
4727;DHT22;2377;51.734;8.950;2022-11-21T03:25:04;0.50;99.90
4727;DHT22;2377;51.734;8.950;2022-11-21T03:27:32;0.50;99.90
4727;DHT22;2377;51.734;8.950;2022-11-21T03:30:00;0.50;99.90
4727;DHT22;2377;51.734;8.950;2022-11-21T03:32:27;0.60;99.90
4727;DHT22;2377;51.734;8.950;2022-11-21T03:34:54;0.60;99.90
4727;DHT22;2377;51.734;8.950;2022-11-21T03:37:21;0.60;99.90
4727;DHT22;2377;51.734;8.950;2022-11-21T03:39:48;0.60;99.90
4727;DHT22;2377;51.734;8.950;2022-11-21T03:42:15;0.60;99.90
4727;DHT22;2377;51.734;8.950;2022-11-21T03:44:42;0.60;99.90
4727;DHT22;2377;51.734;8.950;2022-11-21T03:47:11;0.70;99.90
4727;DHT22;2377;51.734;8.950;2022-11-21T03:49:38;0.70;99.90
4727;DHT22;2377;51.734;8.950;2022-11-21T03:52:05;0.70;99.90
4727;DHT22;2377;51.734;8.950;2022-11-21T03:54:32;0.70;99.90
4727;DHT22;2377;51.734;8.950;2022-11-21T03:56:59;0.70;99.90
4727;DHT22;2377;51.734;8.950;2022-11-21T03:59:26;0.80;99.90
4727;DHT22;2377;51.734;8.950;2022-11-21T04:01:53;0.70;99.90
4727;DHT22;2377;51.734;8.950;2022-11-21T04:04:21;0.70;99.90
4727;DHT22;2377;51.734;8.950;2022-11-21T04:06:48;0.80;99.90
4727;DHT22;2377;51.734;8.950;2022-11-21T04:09:15;0.80;99.90
4727;DHT22;2377;51.734;8.950;2022-11-21T04:11:42;0.80;99.90
4727;DHT22;2377;51.734;8.950;2022-11-21T04:14:09;0.80;99.90
4727;DHT22;2377;51.734;8.950;2022-11-21T04:16:36;0.80;99.90
4727;DHT22;2377;51.734;8.950;2022-11-21T04:19:03;0.80;99.90
4727;DHT22;2377;51.734;8.950;2022-11-21T04:21:31;0.80;99.90
4727;DHT22;2377;51.734;8.950;2022-11-21T04:23:58;0.80;99.90
4727;DHT22;2377;51.734;8.950;2022-11-21T04:26:25;0.80;99.90
4727;DHT22;2377;51.734;8.950;2022-11-21T04:28:52;0.80;99.90
4727;DHT22;2377;51.734;8.950;2022-11-21T04:31:19;0.80;99.90
4727;DHT22;2377;51.734;8.950;2022-11-21T04:33:46;0.80;99.90
4727;DHT22;2377;51.734;8.950;2022-11-21T04:36:13;0.80;99.90
4727;DHT22;2377;51.734;8.950;2022-11-21T04:38:42;0.80;99.90
4727;DHT22;2377;51.734;8.950;2022-11-21T04:41:09;0.80;99.90
4727;DHT22;2377;51.734;8.950;2022-11-21T04:43:36;0.80;99.90
4727;DHT22;2377;51.734;8.950;2022-11-21T04:46:03;0.80;99.90
4727;DHT22;2377;51.734;8.950;2022-11-21T04:48:30;0.80;99.90
4727;DHT22;2377;51.734;8.950;2022-11-21T04:50:58;0.80;99.90
4727;DHT22;2377;51.734;8.950;2022-11-21T04:53:25;0.80;99.90
4727;DHT22;2377;51.734;8.950;2022-11-21T04:55:53;0.80;99.90
4727;DHT22;2377;51.734;8.950;2022-11-21T04:58:20;0.80;99.90
4727;DHT22;2377;51.734;8.950;2022-11-21T05:00:47;0.80;99.90
4727;DHT22;2377;51.734;8.950;2022-11-21T05:03:14;0.80;99.90
4727;DHT22;2377;51.734;8.950;2022-11-21T05:05:42;0.80;99.90
4727;DHT22;2377;51.734;8.950;2022-11-21T05:08:09;0.80;99.90
4727;DHT22;2377;51.734;8.950;2022-11-21T05:10:36;0.80;99.90
4727;DHT22;2377;51.734;8.950;2022-11-21T05:13:19;0.80;99.90
4727;DHT22;2377;51.734;8.950;2022-11-21T05:15:47;0.80;99.90
4727;DHT22;2377;51.734;8.950;2022-11-21T05:18:17;0.80;99.90
4727;DHT22;2377;51.734;8.950;2022-11-21T05:20:44;0.80;99.90
4727;DHT22;2377;51.734;8.950;2022-11-21T05:23:11;0.80;99.90
4727;DHT22;2377;51.734;8.950;2022-11-21T05:25:38;0.80;99.90
4727;DHT22;2377;51.734;8.950;2022-11-21T05:28:05;0.80;99.90
4727;DHT22;2377;51.734;8.950;2022-11-21T05:30:34;0.90;99.90
4727;DHT22;2377;51.734;8.950;2022-11-21T05:33:04;0.90;99.90
4727;DHT22;2377;51.734;8.950;2022-11-21T05:35:31;0.90;99.90
4727;DHT22;2377;51.734;8.950;2022-11-21T05:37:58;0.90;99.90
4727;DHT22;2377;51.734;8.950;2022-11-21T05:40:26;0.80;99.90
4727;DHT22;2377;51.734;8.950;2022-11-21T05:42:53;0.90;99.90
4727;DHT22;2377;51.734;8.950;2022-11-21T05:45:39;0.80;99.90
4727;DHT22;2377;51.734;8.950;2022-11-21T05:48:06;0.80;99.90
4727;DHT22;2377;51.734;8.950;2022-11-21T05:50:34;0.80;99.90
4727;DHT22;2377;51.734;8.950;2022-11-21T05:53:02;0.80;99.90
4727;DHT22;2377;51.734;8.950;2022-11-21T05:55:30;0.80;99.90
4727;DHT22;2377;51.734;8.950;2022-11-21T05:57:59;0.90;99.90
4727;DHT22;2377;51.734;8.950;2022-11-21T06:00:27;0.90;99.90
4727;DHT22;2377;51.734;8.950;2022-11-21T06:02:56;0.90;99.90
4727;DHT22;2377;51.734;8.950;2022-11-21T06:05:40;0.90;99.90
4727;DHT22;2377;51.734;8.950;2022-11-21T06:08:07;1.00;99.90
4727;DHT22;2377;51.734;8.950;2022-11-21T06:10:34;0.90;99.90
4727;DHT22;2377;51.734;8.950;2022-11-21T06:13:02;0.90;99.90
4727;DHT22;2377;51.734;8.950;2022-11-21T06:15:47;0.90;99.90
4727;DHT22;2377;51.734;8.950;2022-11-21T06:18:16;0.90;99.90
4727;DHT22;2377;51.734;8.950;2022-11-21T06:20:44;0.80;99.90
4727;DHT22;2377;51.734;8.950;2022-11-21T06:23:11;0.80;99.90
4727;DHT22;2377;51.734;8.950;2022-11-21T06:25:38;0.80;99.90
4727;DHT22;2377;51.734;8.950;2022-11-21T06:28:06;0.80;99.90
4727;DHT22;2377;51.734;8.950;2022-11-21T06:30:33;0.80;99.90
4727;DHT22;2377;51.734;8.950;2022-11-21T06:33:03;0.70;99.90
4727;DHT22;2377;51.734;8.950;2022-11-21T06:35:36;0.70;99.90
4727;DHT22;2377;51.734;8.950;2022-11-21T06:38:04;0.70;99.90
4727;DHT22;2377;51.734;8.950;2022-11-21T06:40:31;0.80;99.90
4727;DHT22;2377;51.734;8.950;2022-11-21T06:42:58;0.70;99.90
4727;DHT22;2377;51.734;8.950;2022-11-21T06:45:26;0.60;99.90
4727;DHT22;2377;51.734;8.950;2022-11-21T06:47:53;0.70;99.90
4727;DHT22;2377;51.734;8.950;2022-11-21T06:50:21;0.70;99.90
4727;DHT22;2377;51.734;8.950;2022-11-21T06:52:49;0.70;99.90
4727;DHT22;2377;51.734;8.950;2022-11-21T06:55:17;0.70;99.90
4727;DHT22;2377;51.734;8.950;2022-11-21T06:57:45;0.70;99.90
4727;DHT22;2377;51.734;8.950;2022-11-21T07:00:13;0.70;99.90
4727;DHT22;2377;51.734;8.950;2022-11-21T07:02:41;0.80;99.90
4727;DHT22;2377;51.734;8.950;2022-11-21T07:05:08;0.80;99.90
4727;DHT22;2377;51.734;8.950;2022-11-21T07:07:35;0.80;99.90
4727;DHT22;2377;51.734;8.950;2022-11-21T07:10:05;0.80;99.90
4727;DHT22;2377;51.734;8.950;2022-11-21T07:12:33;0.80;99.90
4727;DHT22;2377;51.734;8.950;2022-11-21T07:15:18;0.80;99.90
4727;DHT22;2377;51.734;8.950;2022-11-21T07:17:45;0.80;99.90
4727;DHT22;2377;51.734;8.950;2022-11-21T07:20:12;0.90;99.90
4727;DHT22;2377;51.734;8.950;2022-11-21T07:22:39;0.90;99.90
4727;DHT22;2377;51.734;8.950;2022-11-21T07:25:09;0.90;99.90
4727;DHT22;2377;51.734;8.950;2022-11-21T07:27:36;0.90;99.90
4727;DHT22;2377;51.734;8.950;2022-11-21T07:30:04;0.90;99.90
4727;DHT22;2377;51.734;8.950;2022-11-21T07:32:32;0.90;99.90
4727;DHT22;2377;51.734;8.950;2022-11-21T07:34:59;1.00;99.90
4727;DHT22;2377;51.734;8.950;2022-11-21T07:37:28;1.00;99.90
4727;DHT22;2377;51.734;8.950;2022-11-21T07:39:55;1.00;99.90
4727;DHT22;2377;51.734;8.950;2022-11-21T07:42:24;1.00;99.90
4727;DHT22;2377;51.734;8.950;2022-11-21T07:44:51;1.00;99.90
4727;DHT22;2377;51.734;8.950;2022-11-21T07:47:18;1.00;99.90
4727;DHT22;2377;51.734;8.950;2022-11-21T07:49:45;1.00;99.90
4727;DHT22;2377;51.734;8.950;2022-11-21T07:52:12;1.10;99.90
4727;DHT22;2377;51.734;8.950;2022-11-21T07:54:39;1.10;99.90
4727;DHT22;2377;51.734;8.950;2022-11-21T07:57:06;1.10;99.90
4727;DHT22;2377;51.734;8.950;2022-11-21T07:59:34;1.10;99.90
4727;DHT22;2377;51.734;8.950;2022-11-21T08:02:02;1.30;99.90
4727;DHT22;2377;51.734;8.950;2022-11-21T08:04:29;1.30;99.90
4727;DHT22;2377;51.734;8.950;2022-11-21T08:06:56;1.30;99.90
4727;DHT22;2377;51.734;8.950;2022-11-21T08:09:26;1.30;99.90
4727;DHT22;2377;51.734;8.950;2022-11-21T08:11:54;1.30;99.90
4727;DHT22;2377;51.734;8.950;2022-11-21T08:14:21;1.30;99.90
4727;DHT22;2377;51.734;8.950;2022-11-21T08:16:51;1.30;99.90
4727;DHT22;2377;51.734;8.950;2022-11-21T08:19:18;1.40;99.90
4727;DHT22;2377;51.734;8.950;2022-11-21T08:21:46;1.40;99.90
4727;DHT22;2377;51.734;8.950;2022-11-21T08:24:13;1.50;99.90
4727;DHT22;2377;51.734;8.950;2022-11-21T08:26:42;1.50;99.90
4727;DHT22;2377;51.734;8.950;2022-11-21T08:29:10;1.60;99.90
4727;DHT22;2377;51.734;8.950;2022-11-21T08:31:38;1.60;99.90
4727;DHT22;2377;51.734;8.950;2022-11-21T08:34:07;1.60;99.90
4727;DHT22;2377;51.734;8.950;2022-11-21T08:36:34;1.70;99.90
4727;DHT22;2377;51.734;8.950;2022-11-21T08:39:02;1.80;99.90
4727;DHT22;2377;51.734;8.950;2022-11-21T08:41:29;1.80;99.90
4727;DHT22;2377;51.734;8.950;2022-11-21T08:44:14;1.80;99.90
4727;DHT22;2377;51.734;8.950;2022-11-21T08:46:41;1.80;99.90
4727;DHT22;2377;51.734;8.950;2022-11-21T08:49:09;1.80;99.90
4727;DHT22;2377;51.734;8.950;2022-11-21T08:51:37;1.90;99.90
4727;DHT22;2377;51.734;8.950;2022-11-21T08:54:04;2.00;99.90
4727;DHT22;2377;51.734;8.950;2022-11-21T08:56:31;2.00;99.90
4727;DHT22;2377;51.734;8.950;2022-11-21T08:58:58;2.00;99.90
4727;DHT22;2377;51.734;8.950;2022-11-21T09:01:25;2.00;99.90
4727;DHT22;2377;51.734;8.950;2022-11-21T09:03:52;2.10;99.90
4727;DHT22;2377;51.734;8.950;2022-11-21T09:06:20;2.10;99.90
4727;DHT22;2377;51.734;8.950;2022-11-21T09:08:48;2.20;99.90
4727;DHT22;2377;51.734;8.950;2022-11-21T09:11:15;2.20;99.90
4727;DHT22;2377;51.734;8.950;2022-11-21T09:13:42;2.30;99.90
4727;DHT22;2377;51.734;8.950;2022-11-21T09:16:29;2.30;99.90
4727;DHT22;2377;51.734;8.950;2022-11-21T09:19:14;2.50;99.90
4727;DHT22;2377;51.734;8.950;2022-11-21T09:21:42;2.50;99.90
4727;DHT22;2377;51.734;8.950;2022-11-21T09:24:09;2.50;99.90
4727;DHT22;2377;51.734;8.950;2022-11-21T09:26:36;2.60;99.90
4727;DHT22;2377;51.734;8.950;2022-11-21T09:29:03;2.50;99.90
4727;DHT22;2377;51.734;8.950;2022-11-21T09:31:31;2.60;99.90
4727;DHT22;2377;51.734;8.950;2022-11-21T09:33:58;2.60;99.90
4727;DHT22;2377;51.734;8.950;2022-11-21T09:36:25;2.70;99.90
4727;DHT22;2377;51.734;8.950;2022-11-21T09:38:53;2.80;99.90
4727;DHT22;2377;51.734;8.950;2022-11-21T09:41:27;2.90;99.90
4727;DHT22;2377;51.734;8.950;2022-11-21T09:44:24;2.90;99.90
4727;DHT22;2377;51.734;8.950;2022-11-21T09:47:09;3.00;99.90
4727;DHT22;2377;51.734;8.950;2022-11-21T09:49:47;3.00;99.90
4727;DHT22;2377;51.734;8.950;2022-11-21T09:52:20;3.00;99.90
4727;DHT22;2377;51.734;8.950;2022-11-21T09:54:55;3.00;99.90
4727;DHT22;2377;51.734;8.950;2022-11-21T09:57:25;3.10;99.90
4727;DHT22;2377;51.734;8.950;2022-11-21T09:59:52;3.10;99.90
4727;DHT22;2377;51.734;8.950;2022-11-21T10:02:22;3.30;99.90
4727;DHT22;2377;51.734;8.950;2022-11-21T10:04:51;3.30;99.90
4727;DHT22;2377;51.734;8.950;2022-11-21T10:07:23;3.40;99.90
4727;DHT22;2377;51.734;8.950;2022-11-21T10:10:06;3.50;99.90
4727;DHT22;2377;51.734;8.950;2022-11-21T10:12:53;3.50;99.90
4727;DHT22;2377;51.734;8.950;2022-11-21T10:15:45;3.50;99.90
4727;DHT22;2377;51.734;8.950;2022-11-21T10:22:03;3.60;99.90
4727;DHT22;2377;51.734;8.950;2022-11-21T10:24:45;3.70;99.90
4727;DHT22;2377;51.734;8.950;2022-11-21T10:27:29;3.80;99.90
4727;DHT22;2377;51.734;8.950;2022-11-21T10:30:02;4.10;99.90
4727;DHT22;2377;51.734;8.950;2022-11-21T10:32:36;5.10;47.10
4727;DHT22;2377;51.734;8.950;2022-11-21T10:35:13;5.40;11.10
4727;DHT22;2377;51.734;8.950;2022-11-21T10:37:47;5.80;15.20
4727;DHT22;2377;51.734;8.950;2022-11-21T10:40:31;5.60;14.10
4727;DHT22;2377;51.734;8.950;2022-11-21T10:43:06;5.50;22.80
4727;DHT22;2377;51.734;8.950;2022-11-21T10:45:59;5.10;17.00
4727;DHT22;2377;51.734;8.950;2022-11-21T10:48:26;5.00;27.70
4727;DHT22;2377;51.734;8.950;2022-11-21T10:51:06;4.70;24.40
4727;DHT22;2377;51.734;8.950;2022-11-21T10:53:43;4.60;14.30
4727;DHT22;2377;51.734;8.950;2022-11-21T10:56:42;4.30;17.70
4727;DHT22;2377;51.734;8.950;2022-11-21T10:59:20;4.20;29.70
4727;DHT22;2377;51.734;8.950;2022-11-21T11:01:54;4.00;38.30
4727;DHT22;2377;51.734;8.950;2022-11-21T11:04:23;4.10;33.70
4727;DHT22;2377;51.734;8.950;2022-11-21T11:06:53;4.30;25.50
4727;DHT22;2377;51.734;8.950;2022-11-21T11:09:28;4.40;23.90
4727;DHT22;2377;51.734;8.950;2022-11-21T11:12:20;4.40;25.00
4727;DHT22;2377;51.734;8.950;2022-11-21T11:15:18;4.30;24.60
4727;DHT22;2377;51.734;8.950;2022-11-21T11:17:52;4.40;27.50
4727;DHT22;2377;51.734;8.950;2022-11-21T11:20:32;4.30;25.50
4727;DHT22;2377;51.734;8.950;2022-11-21T11:23:16;4.30;28.80
4727;DHT22;2377;51.734;8.950;2022-11-21T11:25:50;4.30;22.20
4727;DHT22;2377;51.734;8.950;2022-11-21T11:28:19;4.00;30.00
4727;DHT22;2377;51.734;8.950;2022-11-21T11:30:51;3.70;37.50
4727;DHT22;2377;51.734;8.950;2022-11-21T11:33:50;3.60;48.60
4727;DHT22;2377;51.734;8.950;2022-11-21T11:36:31;3.60;43.70
4727;DHT22;2377;51.734;8.950;2022-11-21T11:39:12;3.70;50.10
4727;DHT22;2377;51.734;8.950;2022-11-21T11:45:29;4.00;30.30
4727;DHT22;2377;51.734;8.950;2022-11-21T11:48:27;4.00;31.70
4727;DHT22;2377;51.734;8.950;2022-11-21T11:51:00;4.10;28.70
4727;DHT22;2377;51.734;8.950;2022-11-21T11:53:32;4.10;33.30
4727;DHT22;2377;51.734;8.950;2022-11-21T11:56:07;4.10;26.50
4727;DHT22;2377;51.734;8.950;2022-11-21T11:58:44;4.10;29.70
4727;DHT22;2377;51.734;8.950;2022-11-21T12:01:19;4.10;28.80
4727;DHT22;2377;51.734;8.950;2022-11-21T12:03:57;4.20;27.70
4727;DHT22;2377;51.734;8.950;2022-11-21T12:06:28;4.30;27.30
4727;DHT22;2377;51.734;8.950;2022-11-21T12:09:03;4.30;27.90
4727;DHT22;2377;51.734;8.950;2022-11-21T12:11:49;4.30;22.70
4727;DHT22;2377;51.734;8.950;2022-11-21T12:14:49;4.30;25.10
4727;DHT22;2377;51.734;8.950;2022-11-21T12:17:44;4.20;30.70
4727;DHT22;2377;51.734;8.950;2022-11-21T12:20:23;4.10;36.70
4727;DHT22;2377;51.734;8.950;2022-11-21T12:22:54;4.10;33.90
4727;DHT22;2377;51.734;8.950;2022-11-21T12:25:27;4.10;40.50
4727;DHT22;2377;51.734;8.950;2022-11-21T12:27:57;4.10;39.00
4727;DHT22;2377;51.734;8.950;2022-11-21T12:30:46;4.00;42.30
4727;DHT22;2377;51.734;8.950;2022-11-21T12:33:23;4.00;44.70
4727;DHT22;2377;51.734;8.950;2022-11-21T12:38:57;4.00;55.00
4727;DHT22;2377;51.734;8.950;2022-11-21T12:41:45;4.00;52.80
4727;DHT22;2377;51.734;8.950;2022-11-21T12:44:46;4.10;55.70
4727;DHT22;2377;51.734;8.950;2022-11-21T12:47:39;4.10;41.40
4727;DHT22;2377;51.734;8.950;2022-11-21T12:50:45;4.20;48.20
4727;DHT22;2377;51.734;8.950;2022-11-21T12:53:42;4.20;38.40
4727;DHT22;2377;51.734;8.950;2022-11-21T12:56:41;4.30;46.40
4727;DHT22;2377;51.734;8.950;2022-11-21T12:59:14;4.10;58.50
4727;DHT22;2377;51.734;8.950;2022-11-21T13:02:22;4.10;57.40
4727;DHT22;2377;51.734;8.950;2022-11-21T13:04:56;4.10;69.70
4727;DHT22;2377;51.734;8.950;2022-11-21T13:07:27;4.10;71.80
4727;DHT22;2377;51.734;8.950;2022-11-21T13:09:59;4.10;73.50
4727;DHT22;2377;51.734;8.950;2022-11-21T13:12:37;4.10;69.60
4727;DHT22;2377;51.734;8.950;2022-11-21T13:15:20;4.10;70.30
4727;DHT22;2377;51.734;8.950;2022-11-21T13:17:55;4.00;69.50
4727;DHT22;2377;51.734;8.950;2022-11-21T13:20:31;3.80;76.70
4727;DHT22;2377;51.734;8.950;2022-11-21T13:23:34;3.80;82.30
4727;DHT22;2377;51.734;8.950;2022-11-21T13:29:06;3.80;79.80
4727;DHT22;2377;51.734;8.950;2022-11-21T13:31:35;3.80;99.90
4727;DHT22;2377;51.734;8.950;2022-11-21T13:34:04;3.80;73.50
4727;DHT22;2377;51.734;8.950;2022-11-21T13:36:51;3.80;76.40
4727;DHT22;2377;51.734;8.950;2022-11-21T13:39:28;3.80;78.40
4727;DHT22;2377;51.734;8.950;2022-11-21T13:42:09;3.80;80.60
4727;DHT22;2377;51.734;8.950;2022-11-21T13:44:57;3.80;82.40
4727;DHT22;2377;51.734;8.950;2022-11-21T13:48:03;3.80;84.40
4727;DHT22;2377;51.734;8.950;2022-11-21T13:51:05;3.80;99.40
4727;DHT22;2377;51.734;8.950;2022-11-21T13:54:34;3.70;82.30
4727;DHT22;2377;51.734;8.950;2022-11-21T13:57:39;3.70;87.40
4727;DHT22;2377;51.734;8.950;2022-11-21T14:00:31;3.70;87.20
4727;DHT22;2377;51.734;8.950;2022-11-21T14:03:36;3.70;90.10
4727;DHT22;2377;51.734;8.950;2022-11-21T14:06:33;3.70;89.00
4727;DHT22;2377;51.734;8.950;2022-11-21T14:09:26;3.70;93.70
4727;DHT22;2377;51.734;8.950;2022-11-21T14:12:02;3.60;91.60
4727;DHT22;2377;51.734;8.950;2022-11-21T14:14:35;3.60;99.90
4727;DHT22;2377;51.734;8.950;2022-11-21T14:17:28;3.60;99.90
4727;DHT22;2377;51.734;8.950;2022-11-21T14:20:19;3.60;94.30
4727;DHT22;2377;51.734;8.950;2022-11-21T14:22:56;3.60;99.90
4727;DHT22;2377;51.734;8.950;2022-11-21T14:25:34;3.60;99.90
4727;DHT22;2377;51.734;8.950;2022-11-21T14:28:10;3.60;99.90
4727;DHT22;2377;51.734;8.950;2022-11-21T14:30:43;3.60;99.90
4727;DHT22;2377;51.734;8.950;2022-11-21T14:33:26;3.50;99.90
4727;DHT22;2377;51.734;8.950;2022-11-21T14:36:03;3.60;99.90
4727;DHT22;2377;51.734;8.950;2022-11-21T14:38:39;3.50;99.90
4727;DHT22;2377;51.734;8.950;2022-11-21T14:41:29;3.50;99.90
4727;DHT22;2377;51.734;8.950;2022-11-21T14:44:13;3.50;99.90
4727;DHT22;2377;51.734;8.950;2022-11-21T14:46:45;3.50;99.90
4727;DHT22;2377;51.734;8.950;2022-11-21T14:49:20;3.40;99.90
4727;DHT22;2377;51.734;8.950;2022-11-21T14:52:14;3.40;99.90
4727;DHT22;2377;51.734;8.950;2022-11-21T14:54:49;3.50;99.90
4727;DHT22;2377;51.734;8.950;2022-11-21T14:57:21;3.40;99.90
4727;DHT22;2377;51.734;8.950;2022-11-21T14:59:50;3.40;99.90
4727;DHT22;2377;51.734;8.950;2022-11-21T15:02:21;3.40;99.90
4727;DHT22;2377;51.734;8.950;2022-11-21T15:04:52;3.40;99.90
4727;DHT22;2377;51.734;8.950;2022-11-21T15:07:23;3.40;99.90
4727;DHT22;2377;51.734;8.950;2022-11-21T15:09:52;3.40;99.90
4727;DHT22;2377;51.734;8.950;2022-11-21T15:12:26;3.30;99.90
4727;DHT22;2377;51.734;8.950;2022-11-21T15:14:59;3.30;99.90
4727;DHT22;2377;51.734;8.950;2022-11-21T15:17:30;3.30;99.90
4727;DHT22;2377;51.734;8.950;2022-11-21T15:20:17;3.20;99.90
4727;DHT22;2377;51.734;8.950;2022-11-21T15:22:47;3.10;99.90
4727;DHT22;2377;51.734;8.950;2022-11-21T15:25:18;3.10;99.90
4727;DHT22;2377;51.734;8.950;2022-11-21T15:27:46;3.10;99.90
4727;DHT22;2377;51.734;8.950;2022-11-21T15:30:25;3.10;99.90
4727;DHT22;2377;51.734;8.950;2022-11-21T15:33:05;3.10;99.90
4727;DHT22;2377;51.734;8.950;2022-11-21T15:35:47;3.00;99.90
4727;DHT22;2377;51.734;8.950;2022-11-21T15:38:23;3.00;99.90
4727;DHT22;2377;51.734;8.950;2022-11-21T15:41:04;3.00;99.90
4727;DHT22;2377;51.734;8.950;2022-11-21T15:43:50;2.90;99.90
4727;DHT22;2377;51.734;8.950;2022-11-21T15:46:20;3.00;99.90
4727;DHT22;2377;51.734;8.950;2022-11-21T15:48:49;2.90;99.90
4727;DHT22;2377;51.734;8.950;2022-11-21T15:51:20;2.80;99.90
4727;DHT22;2377;51.734;8.950;2022-11-21T15:53:48;2.80;99.90
4727;DHT22;2377;51.734;8.950;2022-11-21T15:56:18;2.80;99.90
4727;DHT22;2377;51.734;8.950;2022-11-21T15:58:47;2.80;99.90
4727;DHT22;2377;51.734;8.950;2022-11-21T16:01:17;2.80;99.90
4727;DHT22;2377;51.734;8.950;2022-11-21T16:03:47;2.80;99.90
4727;DHT22;2377;51.734;8.950;2022-11-21T16:06:16;2.80;99.90
4727;DHT22;2377;51.734;8.950;2022-11-21T16:08:45;2.70;99.90
4727;DHT22;2377;51.734;8.950;2022-11-21T16:11:17;2.70;99.90
4727;DHT22;2377;51.734;8.950;2022-11-21T16:13:48;2.70;99.90
4727;DHT22;2377;51.734;8.950;2022-11-21T16:16:16;2.70;99.90
4727;DHT22;2377;51.734;8.950;2022-11-21T16:18:43;2.70;99.90
4727;DHT22;2377;51.734;8.950;2022-11-21T16:21:11;2.70;99.90
4727;DHT22;2377;51.734;8.950;2022-11-21T16:23:38;2.80;99.90
4727;DHT22;2377;51.734;8.950;2022-11-21T16:26:08;2.80;99.90
4727;DHT22;2377;51.734;8.950;2022-11-21T16:28:37;2.80;99.90
4727;DHT22;2377;51.734;8.950;2022-11-21T16:31:04;2.80;99.90
4727;DHT22;2377;51.734;8.950;2022-11-21T16:33:32;2.80;99.90
4727;DHT22;2377;51.734;8.950;2022-11-21T16:36:00;2.80;99.90
4727;DHT22;2377;51.734;8.950;2022-11-21T16:38:28;2.80;99.90
4727;DHT22;2377;51.734;8.950;2022-11-21T16:40:57;2.80;99.90
4727;DHT22;2377;51.734;8.950;2022-11-21T16:43:27;2.80;99.90
4727;DHT22;2377;51.734;8.950;2022-11-21T16:45:55;2.80;99.90
4727;DHT22;2377;51.734;8.950;2022-11-21T16:48:33;2.80;99.90
4727;DHT22;2377;51.734;8.950;2022-11-21T16:51:08;2.80;99.90
4727;DHT22;2377;51.734;8.950;2022-11-21T16:53:36;2.70;99.90
4727;DHT22;2377;51.734;8.950;2022-11-21T16:56:04;2.60;99.90
4727;DHT22;2377;51.734;8.950;2022-11-21T16:58:34;2.60;99.90
4727;DHT22;2377;51.734;8.950;2022-11-21T17:01:09;2.50;99.90
4727;DHT22;2377;51.734;8.950;2022-11-21T17:03:38;2.50;99.90
4727;DHT22;2377;51.734;8.950;2022-11-21T17:06:06;2.50;99.90